Time;durP1;ratioP1;P1;durP2;ratioP2;P2;SDS_P1;SDS_P2;PMS_P1;PMS_P2;Temp;Humidity;BMP_temperature;BMP_pressure;BME280_temperature;BME280_humidity;BME280_pressure;Samples;Min_cycle;Max_cycle;Signal;HPM_P1;HPM_P2
2022/04/23 00:01:32;;;;;;;11.02;6.75;;;11.20;76.50;;;;;;5091223;28;20067;-81
2022/04/23 00:03:58;;;;;;;11.48;6.90;;;11.20;76.60;;;;;;5091599;28;20057;-81
2022/04/23 00:06:24;;;;;;;8.80;6.25;;;11.20;76.70;;;;;;5074956;28;20120;-82
2022/04/23 00:08:50;;;;;;;7.90;5.60;;;11.20;77.00;;;;;;5091610;28;20067;-81
2022/04/23 00:11:16;;;;;;;7.38;6.22;;;11.10;76.80;;;;;;5074536;28;20044;-82
2022/04/23 00:13:41;;;;;;;10.77;7.13;;;11.10;76.90;;;;;;5091357;28;20089;-82
2022/04/23 00:16:10;;;;;;;8.55;6.53;;;11.10;77.10;;;;;;5074366;28;20047;-82
2022/04/23 00:18:36;;;;;;;7.60;5.60;;;11.10;77.20;;;;;;5091211;28;20048;-82
2022/04/23 00:21:03;;;;;;;9.75;6.53;;;11.00;77.30;;;;;;5092864;28;20098;-82
2022/04/23 00:23:31;;;;;;;10.52;6.38;;;11.00;77.30;;;;;;5077973;28;20055;-82
2022/04/23 00:25:58;;;;;;;10.82;6.57;;;11.00;77.50;;;;;;5094569;28;20055;-82
2022/04/23 00:28:24;;;;;;;11.63;7.55;;;11.00;77.50;;;;;;5078083;28;20044;-82
2022/04/23 00:30:52;;;;;;;12.32;8.05;;;10.90;77.40;;;;;;5077810;28;20131;-82
2022/04/23 00:33:18;;;;;;;12.30;7.15;;;10.90;77.30;;;;;;5078288;28;20067;-82
2022/04/23 00:35:45;;;;;;;11.18;7.90;;;10.80;77.60;;;;;;5094448;28;20511;-82
2022/04/23 00:38:10;;;;;;;13.63;8.60;;;10.80;77.90;;;;;;5094735;28;20035;-82
2022/04/23 00:40:38;;;;;;;12.07;7.88;;;10.70;78.20;;;;;;5060840;28;20640;-81
2022/04/23 00:43:10;;;;;;;12.82;7.85;;;10.60;77.90;;;;;;5061129;28;20480;-82
2022/04/23 00:45:36;;;;;;;12.63;8.88;;;10.60;78.30;;;;;;5094351;28;20500;-81
2022/04/23 00:48:02;;;;;;;10.68;8.73;;;10.50;78.30;;;;;;5094234;28;20044;-81
2022/04/23 00:50:28;;;;;;;10.23;8.05;;;10.50;78.40;;;;;;5094358;28;20032;-81
2022/04/23 00:53:01;;;;;;;10.68;7.40;;;10.50;78.70;;;;;;5077340;28;20174;-82
2022/04/23 00:55:29;;;;;;;12.45;8.23;;;10.50;78.50;;;;;;5094214;28;20044;-81
2022/04/23 00:57:56;;;;;;;9.50;8.00;;;10.50;79.10;;;;;;5094119;28;20051;-82
2022/04/23 01:00:22;;;;;;;14.93;8.88;;;10.40;78.90;;;;;;5094267;28;20047;-82
2022/04/23 01:02:47;;;;;;;11.15;7.82;;;10.50;78.50;;;;;;5094014;28;20047;-81
2022/04/23 01:05:14;;;;;;;10.15;7.80;;;10.40;78.80;;;;;;5093948;28;20048;-81
2022/04/23 01:07:44;;;;;;;15.20;9.80;;;10.30;80.00;;;;;;5077261;28;20040;-80
2022/04/23 01:10:11;;;;;;;13.25;9.05;;;10.30;80.70;;;;;;5094151;28;20111;-82
2022/04/23 01:12:38;;;;;;;12.63;8.80;;;10.20;80.90;;;;;;5077328;28;20039;-82
2022/04/23 01:15:06;;;;;;;11.52;8.68;;;10.30;80.40;;;;;;5060303;28;20476;-81
2022/04/23 01:17:33;;;;;;;13.23;8.50;;;10.30;80.80;;;;;;5093647;28;20522;-82
2022/04/23 01:20:14;;;;;;;15.10;10.20;;;10.30;80.00;;;;;;5076885;28;20036;-82
2022/04/23 01:22:41;;;;;;;10.93;7.50;;;10.20;80.70;;;;;;5076835;28;20052;-82
2022/04/23 01:25:10;;;;;;;12.27;9.77;;;10.20;80.60;;;;;;5076984;28;20123;-82
2022/04/23 01:27:37;;;;;;;11.40;7.30;;;10.20;80.00;;;;;;5076707;28;20082;-81
2022/04/23 01:30:04;;;;;;;13.63;9.32;;;10.20;80.20;;;;;;5093503;28;20040;-82
2022/04/23 01:32:30;;;;;;;16.55;9.38;;;10.20;80.10;;;;;;5076884;28;20422;-82
2022/04/23 01:34:55;;;;;;;12.18;8.60;;;10.10;79.90;;;;;;5076817;28;20028;-82
2022/04/23 01:37:21;;;;;;;14.63;9.65;;;10.10;80.50;;;;;;5076458;28;20040;-82
2022/04/23 01:39:47;;;;;;;15.35;9.43;;;10.10;80.20;;;;;;5076581;28;20036;-82
2022/04/23 01:42:13;;;;;;;12.27;7.60;;;10.00;80.50;;;;;;5093166;28;20135;-81
2022/04/23 01:44:39;;;;;;;13.45;8.63;;;10.00;80.60;;;;;;5076472;28;20036;-82
2022/04/23 01:47:05;;;;;;;15.00;8.93;;;10.00;80.50;;;;;;5093141;28;20040;-81
2022/04/23 01:49:31;;;;;;;15.98;9.70;;;10.00;80.30;;;;;;5076353;28;20079;-82
2022/04/23 01:51:56;;;;;;;13.80;10.45;;;10.00;80.50;;;;;;5076220;28;20122;-82
2022/04/23 01:54:22;;;;;;;14.00;10.27;;;10.00;80.50;;;;;;5093115;28;20040;-81
2022/04/23 01:56:48;;;;;;;14.10;9.77;;;9.90;81.10;;;;;;5059370;28;20040;-82
2022/04/23 01:59:14;;;;;;;14.50;10.05;;;9.90;80.80;;;;;;5092959;28;20082;-81
2022/04/23 02:01:41;;;;;;;15.80;10.75;;;9.90;80.70;;;;;;5076019;28;20043;-82
2022/04/23 02:04:09;;;;;;;14.75;9.88;;;9.90;81.10;;;;;;5092844;28;20070;-82
2022/04/23 02:06:35;;;;;;;13.45;9.45;;;9.90;81.50;;;;;;5092772;28;20036;-82
2022/04/23 02:09:02;;;;;;;15.25;10.20;;;9.80;80.90;;;;;;5092710;28;20071;-81
2022/04/23 02:11:28;;;;;;;11.63;9.15;;;9.80;82.50;;;;;;5092909;28;20141;-82
2022/04/23 02:13:54;;;;;;;12.45;9.43;;;9.80;81.60;;;;;;5076058;28;20491;-82
2022/04/23 02:16:20;;;;;;;14.73;9.85;;;9.80;81.60;;;;;;5075634;28;20036;-82
2022/04/23 02:18:46;;;;;;;12.18;10.07;;;9.80;81.80;;;;;;5092849;28;20132;-81
2022/04/23 02:21:11;;;;;;;14.73;11.73;;;9.80;82.20;;;;;;5059194;28;20043;-82
2022/04/23 02:23:38;;;;;;;13.38;10.50;;;9.80;82.00;;;;;;5092245;28;20528;-82
2022/04/23 02:26:05;;;;;;;14.18;10.40;;;9.80;83.20;;;;;;5075685;28;20427;-82
2022/04/23 02:28:31;;;;;;;13.02;10.57;;;9.80;82.60;;;;;;5076009;28;20377;-82
2022/04/23 02:30:57;;;;;;;14.77;13.20;;;9.80;83.30;;;;;;5092508;28;20058;-81
2022/04/23 02:33:22;;;;;;;13.70;10.68;;;9.80;82.40;;;;;;5075427;28;20111;-81
2022/04/23 02:35:50;;;;;;;13.27;10.30;;;9.80;82.00;;;;;;5075344;28;20062;-81
2022/04/23 02:38:17;;;;;;;12.38;10.88;;;9.90;81.80;;;;;;5092589;28;20435;-81
2022/04/23 02:40:43;;;;;;;15.85;11.23;;;9.90;81.70;;;;;;5075221;28;20597;-81
2022/04/23 02:43:12;;;;;;;14.40;11.82;;;9.90;82.60;;;;;;5075244;28;20067;-81
2022/04/23 02:45:39;;;;;;;15.15;11.88;;;9.90;83.40;;;;;;5092056;28;20093;-81
2022/04/23 02:48:05;;;;;;;17.42;12.98;;;9.90;82.80;;;;;;5075498;28;20067;-81
2022/04/23 02:50:37;;;;;;;15.15;12.82;;;9.80;83.00;;;;;;5075435;28;20403;-82
2022/04/23 02:53:04;;;;;;;13.95;10.10;;;9.90;82.60;;;;;;5092317;28;20403;-82
2022/04/23 02:55:31;;;;;;;11.65;10.07;;;9.80;82.40;;;;;;5092005;28;20105;-81
2022/04/23 02:58:02;;;;;;;16.02;12.68;;;9.80;82.40;;;;;;5075179;28;20040;-81
2022/04/23 03:00:27;;;;;;;11.93;10.10;;;9.80;82.50;;;;;;5092220;28;20040;-81
2022/04/23 03:02:53;;;;;;;13.77;11.25;;;9.80;82.20;;;;;;5075087;28;20391;-81
2022/04/23 03:05:19;;;;;;;13.82;11.18;;;9.80;82.90;;;;;;5075036;28;20044;-82
2022/04/23 03:07:45;;;;;;;12.35;10.70;;;9.80;82.80;;;;;;5091818;28;20507;-82
2022/04/23 03:10:16;;;;;;;15.15;11.80;;;9.80;81.90;;;;;;5091966;28;20047;-81
2022/04/23 03:12:43;;;;;;;15.95;11.18;;;9.80;82.70;;;;;;5091849;28;20032;-81
2022/04/23 03:15:12;;;;;;;14.65;11.57;;;9.70;82.30;;;;;;5074983;28;20123;-81
2022/04/23 03:17:38;;;;;;;15.73;11.52;;;9.80;82.80;;;;;;5075013;28;20131;-81
2022/04/23 03:20:05;;;;;;;14.95;11.45;;;9.70;83.20;;;;;;5091663;28;20071;-82
2022/04/23 03:22:31;;;;;;;16.00;13.15;;;9.60;84.40;;;;;;5074619;28;20052;-81
2022/04/23 03:24:57;;;;;;;14.80;12.07;;;9.60;84.20;;;;;;5074748;28;20109;-81
2022/04/23 03:27:23;;;;;;;16.88;12.27;;;9.60;84.00;;;;;;5074787;28;20032;-81
2022/04/23 03:29:48;;;;;;;15.70;12.73;;;9.60;83.70;;;;;;5091898;28;20043;-82
2022/04/23 03:32:14;;;;;;;14.73;11.18;;;9.60;83.80;;;;;;5074870;28;20134;-82
2022/04/23 03:34:40;;;;;;;14.75;13.10;;;9.60;84.50;;;;;;5075024;28;20121;-82
2022/04/23 03:37:06;;;;;;;16.45;12.20;;;9.60;83.60;;;;;;5091760;28;20048;-82
2022/04/23 03:39:33;;;;;;;17.35;12.63;;;9.60;84.20;;;;;;5058017;28;20430;-82
2022/04/23 03:42:01;;;;;;;18.85;13.55;;;9.50;83.80;;;;;;5074584;28;20040;-82
2022/04/23 03:44:26;;;;;;;12.95;10.15;;;9.50;83.90;;;;;;5058611;28;20461;-82
2022/04/23 03:46:52;;;;;;;17.77;14.00;;;9.50;83.80;;;;;;5074866;28;20071;-81
2022/04/23 03:49:18;;;;;;;14.05;11.95;;;9.50;83.90;;;;;;5058061;28;20036;-81
2022/04/23 03:51:43;;;;;;;14.60;11.25;;;9.50;83.80;;;;;;5074586;28;20051;-81
2022/04/23 03:54:09;;;;;;;14.38;10.50;;;9.50;83.80;;;;;;5074600;28;20044;-81
2022/04/23 03:56:35;;;;;;;22.27;13.88;;;9.50;84.10;;;;;;5094068;28;20036;-81
2022/04/23 03:59:00;;;;;;;18.23;11.27;;;9.50;84.10;;;;;;5078354;28;20043;-81
2022/04/23 04:01:27;;;;;;;15.85;13.18;;;9.50;83.10;;;;;;5061685;28;20048;-81
2022/04/23 04:03:52;;;;;;;15.45;12.10;;;9.50;83.70;;;;;;5078280;28;20047;-81
2022/04/23 04:06:18;;;;;;;16.30;13.35;;;9.40;84.00;;;;;;5095321;28;20040;-81
2022/04/23 04:08:44;;;;;;;15.65;12.05;;;9.40;83.10;;;;;;5095128;28;20468;-81
2022/04/23 04:11:10;;;;;;;15.68;12.63;;;9.50;83.10;;;;;;5095212;28;20047;-81
2022/04/23 04:13:36;;;;;;;18.60;12.32;;;9.40;83.20;;;;;;5078253;28;20054;-81
2022/04/23 04:16:02;;;;;;;16.58;11.93;;;9.50;82.80;;;;;;5077832;28;20040;-81
2022/04/23 04:18:28;;;;;;;15.05;13.15;;;9.50;82.60;;;;;;5094521;28;20044;-81
2022/04/23 04:20:55;;;;;;;13.45;11.82;;;9.50;83.10;;;;;;5094347;28;20051;-81
2022/04/23 04:23:23;;;;;;;14.80;13.20;;;9.40;83.50;;;;;;5077686;28;20062;-81
2022/04/23 04:25:48;;;;;;;16.52;13.50;;;9.40;83.40;;;;;;5094711;28;20527;-82
2022/04/23 04:28:14;;;;;;;14.70;11.85;;;9.40;83.50;;;;;;5078126;28;20080;-81
2022/04/23 04:33:24;;;;;;;16.63;12.68;;;9.30;82.80;;;;;;5094742;28;20101;-81
2022/04/23 04:35:49;;;;;;;17.45;13.50;;;9.40;82.70;;;;;;5094562;28;20044;-81
2022/04/23 04:38:15;;;;;;;14.50;10.93;;;9.40;83.30;;;;;;5077779;28;20036;-81
2022/04/23 04:40:41;;;;;;;13.13;10.18;;;9.30;82.90;;;;;;5077757;28;20047;-80
2022/04/23 04:43:07;;;;;;;14.00;11.63;;;9.30;82.90;;;;;;5094549;28;20403;-81
2022/04/23 04:45:33;;;;;;;14.80;10.63;;;9.30;82.90;;;;;;5077609;28;20176;-80
2022/04/23 04:47:58;;;;;;;15.00;11.93;;;9.30;83.20;;;;;;5077525;28;20077;-81
2022/04/23 04:50:24;;;;;;;15.18;12.18;;;9.30;83.10;;;;;;5094239;28;20047;-81
2022/04/23 04:52:50;;;;;;;15.25;12.38;;;9.30;83.40;;;;;;5094346;28;20036;-80
2022/04/23 04:55:16;;;;;;;18.92;12.27;;;9.30;84.40;;;;;;5077193;28;20427;-81
2022/04/23 04:57:42;;;;;;;15.25;12.93;;;9.20;84.10;;;;;;5077374;28;20046;-81
2022/04/23 05:00:08;;;;;;;16.42;12.27;;;9.20;84.50;;;;;;5060585;28;20119;-81
2022/04/23 05:02:34;;;;;;;16.15;11.70;;;9.30;84.20;;;;;;5093970;28;20044;-81
2022/04/23 05:05:00;;;;;;;14.18;11.73;;;9.30;83.70;;;;;;5077482;28;20043;-80
2022/04/23 05:07:25;;;;;;;14.20;11.80;;;9.30;84.00;;;;;;5094052;28;20040;-81
2022/04/23 05:09:51;;;;;;;15.15;13.05;;;9.30;84.20;;;;;;5077135;28;20495;-80
2022/04/23 05:12:17;;;;;;;15.07;12.20;;;9.30;83.70;;;;;;5094251;28;20086;-81
2022/04/23 05:14:42;;;;;;;12.20;10.30;;;9.30;83.70;;;;;;5060263;28;20488;-80
2022/04/23 05:17:08;;;;;;;15.95;12.93;;;9.30;83.50;;;;;;5093715;28;20092;-81
2022/04/23 05:19:34;;;;;;;15.00;12.35;;;9.40;83.80;;;;;;5076872;28;20040;-81
2022/04/23 05:22:00;;;;;;;14.27;11.38;;;9.40;83.70;;;;;;5061724;28;20048;-80
2022/04/23 05:24:26;;;;;;;15.43;11.50;;;9.40;83.80;;;;;;5080290;28;20047;-80
2022/04/23 05:26:51;;;;;;;14.55;12.98;;;9.40;83.80;;;;;;5080014;28;20100;-80
2022/04/23 05:29:17;;;;;;;15.25;11.60;;;9.50;83.20;;;;;;5096971;28;20043;-79
2022/04/23 05:31:43;;;;;;;14.43;11.30;;;9.50;82.90;;;;;;5097160;28;20047;-80
2022/04/23 05:34:08;;;;;;;12.38;10.63;;;9.60;82.80;;;;;;5096859;28;20039;-80
2022/04/23 05:36:34;;;;;;;16.05;11.65;;;9.60;82.70;;;;;;5096672;28;20069;-80
2022/04/23 05:39:00;;;;;;;13.25;10.07;;;9.60;82.90;;;;;;5096716;28;20081;-80
2022/04/23 05:41:25;;;;;;;13.45;11.23;;;9.60;82.50;;;;;;5079840;28;20043;-80
2022/04/23 05:43:51;;;;;;;14.30;11.13;;;9.70;82.70;;;;;;5096902;28;20035;-81
2022/04/23 05:46:17;;;;;;;13.65;11.52;;;9.70;82.60;;;;;;5096309;28;20069;-80
2022/04/23 05:48:44;;;;;;;15.32;12.07;;;9.80;82.40;;;;;;5096819;28;20043;-80
2022/04/23 05:51:09;;;;;;;16.88;12.60;;;9.70;82.70;;;;;;5079785;28;20039;-81
2022/04/23 05:53:35;;;;;;;14.93;12.02;;;9.80;82.50;;;;;;5096494;28;20365;-81
2022/04/23 05:56:01;;;;;;;15.57;11.93;;;9.80;82.60;;;;;;5079775;28;20475;-80
2022/04/23 05:58:27;;;;;;;15.63;12.32;;;9.90;82.50;;;;;;5096318;28;20176;-80
2022/04/23 06:00:53;;;;;;;15.40;11.65;;;9.90;82.60;;;;;;5079275;28;20039;-81
2022/04/23 06:03:19;;;;;;;16.02;12.95;;;10.00;82.10;;;;;;5096499;28;20075;-81
2022/04/23 06:05:45;;;;;;;12.93;11.07;;;10.00;81.90;;;;;;5096432;28;20539;-81
2022/04/23 06:08:11;;;;;;;12.57;11.05;;;10.10;82.20;;;;;;5079705;28;20127;-81
2022/04/23 06:10:36;;;;;;;13.68;11.50;;;10.10;81.90;;;;;;5065445;27;20047;-80
2022/04/23 06:13:02;;;;;;;15.50;11.48;;;10.20;81.60;;;;;;5067785;27;20069;-81
2022/04/23 06:15:28;;;;;;;12.25;10.48;;;10.20;81.20;;;;;;5102597;27;20039;-82
2022/04/23 06:17:54;;;;;;;11.95;9.32;;;10.40;80.30;;;;;;5081859;28;20047;-82
2022/04/23 06:20:19;;;;;;;11.20;9.15;;;10.40;80.00;;;;;;5067248;27;20495;-83
2022/04/23 06:22:45;;;;;;;15.85;11.93;;;10.50;79.40;;;;;;5097357;27;20059;-82
2022/04/23 06:25:11;;;;;;;11.93;10.65;;;10.50;79.60;;;;;;5099520;27;20086;-80
2022/04/23 06:27:37;;;;;;;11.13;9.88;;;10.60;79.20;;;;;;5087189;27;20043;-80
2022/04/23 06:30:09;;;;;;;11.57;10.32;;;10.70;78.70;;;;;;5080497;27;20032;-81
2022/04/23 06:32:38;;;;;;;11.75;9.73;;;10.80;78.60;;;;;;5082524;27;20240;-80
2022/04/23 06:35:05;;;;;;;13.10;11.70;;;10.80;78.20;;;;;;5082420;27;20050;-81
2022/04/23 06:37:32;;;;;;;13.27;11.95;;;10.80;77.50;;;;;;5098581;27;20046;-80
2022/04/23 06:39:57;;;;;;;12.15;9.98;;;10.90;77.50;;;;;;5080095;27;20043;-81
2022/04/23 06:42:24;;;;;;;10.02;8.85;;;11.00;77.50;;;;;;5097888;27;20513;-80
2022/04/23 06:44:50;;;;;;;11.60;10.45;;;11.00;77.50;;;;;;5084279;27;20054;-80
2022/04/23 06:47:15;;;;;;;13.55;10.90;;;11.10;77.20;;;;;;5103292;27;20044;-78
2022/04/23 06:49:41;;;;;;;13.77;11.63;;;11.10;76.90;;;;;;5103213;27;20043;-80
2022/04/23 06:52:07;;;;;;;12.85;9.82;;;11.20;76.80;;;;;;5095536;27;20088;-80
2022/04/23 06:54:33;;;;;;;12.27;10.05;;;11.30;76.30;;;;;;5072920;27;20031;-80
2022/04/23 06:56:58;;;;;;;10.82;9.73;;;11.40;75.80;;;;;;5083437;27;20135;-80
2022/04/23 06:59:24;;;;;;;13.80;10.93;;;11.40;75.50;;;;;;5082126;27;20104;-80
2022/04/23 07:01:50;;;;;;;13.15;10.82;;;11.50;75.20;;;;;;5097983;27;20046;-83
2022/04/23 07:04:15;;;;;;;15.02;10.68;;;11.50;75.30;;;;;;5096510;28;20235;-80
2022/04/23 07:06:41;;;;;;;12.25;10.50;;;11.60;75.20;;;;;;5097914;27;20047;-79
2022/04/23 07:09:06;;;;;;;12.70;10.20;;;11.60;74.70;;;;;;5099381;28;20134;-80
2022/04/23 07:11:32;;;;;;;13.02;11.63;;;11.70;74.80;;;;;;5072255;27;20066;-79
2022/04/23 07:13:58;;;;;;;14.70;11.13;;;11.80;74.10;;;;;;5101628;28;20043;-81
2022/04/23 07:16:24;;;;;;;12.30;10.30;;;11.90;73.20;;;;;;5100052;28;20036;-82
2022/04/23 07:18:52;;;;;;;11.73;10.52;;;12.00;73.60;;;;;;5062717;28;20047;-81
2022/04/23 07:21:19;;;;;;;17.35;11.50;;;12.00;73.20;;;;;;5096539;28;20060;-82
2022/04/23 07:24:02;;;;;;;13.13;10.85;;;12.10;73.20;;;;;;5095731;28;20108;-81
2022/04/23 07:26:29;;;;;;;11.40;9.20;;;12.20;73.30;;;;;;5099840;28;20124;-81
2022/04/23 07:28:55;;;;;;;11.43;9.75;;;12.30;72.50;;;;;;5097536;27;20039;-81
2022/04/23 07:31:21;;;;;;;12.18;10.93;;;12.30;71.90;;;;;;5085958;27;20043;-80
2022/04/23 07:39:15;;;;;;;;;;;12.60;71.60;;;;;;5091202;27;20065;-80
2022/04/23 07:41:41;;;;;;;11.07;9.75;;;12.60;70.90;;;;;;5086385;27;19927;-81
2022/04/23 07:44:07;;;;;;;12.32;10.05;;;12.70;71.60;;;;;;5101753;27;20496;-80
2022/04/23 07:46:33;;;;;;;11.98;10.52;;;12.80;71.30;;;;;;5104619;27;20036;-79
2022/04/23 07:48:58;;;;;;;12.70;10.20;;;12.90;69.70;;;;;;5086257;27;20032;-79
2022/04/23 07:51:28;;;;;;;13.95;12.15;;;13.00;70.00;;;;;;5087119;27;20395;-78
2022/04/23 07:53:55;;;;;;;12.57;11.00;;;13.00;67.40;;;;;;5123441;27;20086;-80
2022/04/23 07:56:20;;;;;;;13.07;10.63;;;13.00;68.20;;;;;;5108924;27;20047;-82
2022/04/23 07:58:46;;;;;;;12.88;10.77;;;13.20;69.20;;;;;;5102035;27;20056;-82
2022/04/23 08:01:12;;;;;;;13.85;10.07;;;13.30;68.70;;;;;;5099027;27;20066;-80
2022/04/23 08:03:38;;;;;;;12.05;9.80;;;13.40;68.30;;;;;;5085710;27;20096;-81
2022/04/23 08:06:04;;;;;;;11.60;9.35;;;13.50;67.70;;;;;;5085315;27;20032;-81
2022/04/23 08:08:29;;;;;;;10.73;9.60;;;13.60;67.40;;;;;;5081790;27;20042;-80
2022/04/23 08:10:55;;;;;;;11.35;9.05;;;13.70;66.80;;;;;;5102514;27;20039;-81
2022/04/23 08:13:21;;;;;;;12.10;9.73;;;13.80;66.60;;;;;;5073397;27;20069;-81
2022/04/23 08:15:46;;;;;;;15.27;9.38;;;13.90;65.40;;;;;;5103293;27;20086;-80
2022/04/23 08:18:13;;;;;;;13.45;9.50;;;14.00;64.90;;;;;;5087575;27;20079;-80
2022/04/23 08:20:41;;;;;;;11.88;8.55;;;14.10;64.80;;;;;;5102299;27;20338;-79
2022/04/23 08:23:08;;;;;;;17.58;9.30;;;14.20;64.50;;;;;;5102086;27;20062;-80
2022/04/23 08:25:34;;;;;;;14.27;8.88;;;14.20;64.40;;;;;;5106757;27;20398;-81
2022/04/23 08:30:44;;;;;;;14.73;9.27;;;14.50;59.70;;;;;;5100772;27;20135;-79
2022/04/23 08:33:10;;;;;;;10.30;8.68;;;14.50;59.60;;;;;;5104727;27;20551;-81
2022/04/23 08:35:37;;;;;;;12.27;9.90;;;14.60;61.30;;;;;;5102371;27;20043;-81
2022/04/23 08:38:08;;;;;;;11.05;9.73;;;14.70;58.90;;;;;;5101074;27;20564;-79
2022/04/23 08:40:40;;;;;;;10.05;9.05;;;14.70;57.80;;;;;;5085364;28;20391;-81
2022/04/23 08:43:07;;;;;;;13.98;9.90;;;14.80;58.40;;;;;;5085939;27;20031;-81
2022/04/23 08:45:36;;;;;;;12.55;10.20;;;14.70;58.30;;;;;;5102422;27;20031;-81
2022/04/23 08:48:09;;;;;;;12.15;10.55;;;14.90;57.10;;;;;;5081181;27;20120;-81
2022/04/23 08:50:38;;;;;;;13.68;10.65;;;14.90;56.00;;;;;;5088241;27;20487;-81
2022/04/23 08:53:18;;;;;;;11.27;9.73;;;15.00;55.30;;;;;;5089262;27;20035;-80
2022/04/23 08:55:46;;;;;;;12.93;11.13;;;15.10;57.80;;;;;;5105435;27;20039;-82
2022/04/23 08:58:13;;;;;;;23.33;10.73;;;15.20;57.00;;;;;;5102828;27;20043;-81
2022/04/23 09:00:39;;;;;;;11.32;10.10;;;15.30;58.00;;;;;;5115285;27;20040;-80
2022/04/23 09:03:04;;;;;;;14.43;10.00;;;15.30;55.00;;;;;;5085623;27;20042;-79
2022/04/23 09:05:31;;;;;;;11.10;10.00;;;15.40;56.50;;;;;;5068807;27;20040;-83
2022/04/23 09:07:57;;;;;;;11.40;10.02;;;15.50;57.20;;;;;;5083481;27;20104;-79
2022/04/23 09:10:44;;;;;;;10.05;8.75;;;15.50;56.60;;;;;;5101080;27;20052;-78
2022/04/23 09:13:10;;;;;;;10.93;9.15;;;15.60;56.00;;;;;;5086682;27;20040;-80
2022/04/23 09:24:09;;;;;;;11.32;9.13;;;15.90;57.30;;;;;;5105209;27;20059;-81
2022/04/23 09:26:36;;;;;;;10.63;9.48;;;16.00;55.70;;;;;;5084422;27;20039;-80
2022/04/23 09:29:13;;;;;;;10.73;9.63;;;16.00;57.40;;;;;;5097120;27;20074;-79
2022/04/23 09:31:39;;;;;;;11.70;10.35;;;16.20;54.70;;;;;;5098489;27;20478;-83
2022/04/23 09:34:15;;;;;;;12.15;9.63;;;16.10;54.90;;;;;;5088741;27;20035;-83
2022/04/23 09:37:00;;;;;;;10.48;9.43;;;16.20;55.00;;;;;;5070287;27;20092;-82
2022/04/23 09:39:31;;;;;;;;;;;16.40;56.40;;;;;;5099341;27;20054;-81
2022/04/23 09:42:17;;;;;;;10.27;9.25;;;16.40;54.50;;;;;;5081050;27;20253;-81
2022/04/23 09:44:44;;;;;;;10.93;9.63;;;16.50;53.80;;;;;;5101702;27;20054;-80
2022/04/23 09:47:11;;;;;;;11.10;10.00;;;16.50;54.80;;;;;;5101741;27;20131;-80
2022/04/23 09:49:38;;;;;;;14.18;9.65;;;16.60;53.80;;;;;;5084939;27;20031;-80
2022/04/23 09:52:11;;;;;;;10.48;8.98;;;16.70;53.30;;;;;;5101765;27;20077;-81
2022/04/23 09:54:38;;;;;;;11.55;9.88;;;16.80;55.10;;;;;;5083801;27;20039;-80
2022/04/23 09:57:04;;;;;;;11.13;10.02;;;17.00;55.20;;;;;;5095635;27;20072;-83
2022/04/23 09:59:30;;;;;;;10.88;9.75;;;17.00;54.70;;;;;;5082477;27;20071;-82
2022/04/23 10:01:57;;;;;;;10.93;9.93;;;17.00;54.90;;;;;;5083166;27;20071;-81
2022/04/23 10:04:25;;;;;;;10.55;9.32;;;17.10;55.10;;;;;;5085777;27;20070;-83
2022/04/23 10:06:51;;;;;;;13.40;10.60;;;17.20;53.80;;;;;;5097563;27;20050;-83
2022/04/23 10:09:26;;;;;;;11.98;10.65;;;17.30;54.00;;;;;;5100289;27;20054;-83
2022/04/23 10:12:01;;;;;;;12.82;10.10;;;17.40;54.40;;;;;;5079686;27;20511;-82
2022/04/23 10:14:28;;;;;;;14.38;10.23;;;17.50;51.80;;;;;;5099406;27;20078;-82
2022/04/23 10:16:55;;;;;;;10.70;9.63;;;17.70;53.20;;;;;;5099882;28;20039;-83
2022/04/23 10:19:22;;;;;;;9.90;8.55;;;17.80;51.00;;;;;;5079473;28;20069;-81
2022/04/23 10:22:14;;;;;;;10.93;9.77;;;17.80;53.30;;;;;;5062498;28;20040;-81
2022/04/23 10:24:58;;;;;;;9.50;8.55;;;17.80;52.30;;;;;;5095815;28;20130;-82
2022/04/23 10:27:28;;;;;;;11.40;10.23;;;17.90;49.50;;;;;;5078840;28;20035;-83
2022/04/23 10:30:03;;;;;;;14.45;10.60;;;18.00;51.50;;;;;;5095761;28;20065;-82
2022/04/23 10:32:40;;;;;;;15.50;10.60;;;18.10;52.50;;;;;;5079324;28;20036;-80
2022/04/23 10:35:17;;;;;;;11.35;10.13;;;18.00;49.20;;;;;;5096003;28;20506;-80
2022/04/23 10:37:45;;;;;;;10.45;9.45;;;18.10;49.50;;;;;;5095902;28;20051;-82
2022/04/23 10:40:10;;;;;;;12.88;10.25;;;18.30;52.00;;;;;;5079011;28;20054;-80
2022/04/23 10:42:38;;;;;;;10.55;9.55;;;18.40;50.60;;;;;;5095714;28;20127;-81
2022/04/23 10:45:06;;;;;;;12.57;9.50;;;18.50;49.70;;;;;;5095864;28;20468;-81
2022/04/23 10:47:39;;;;;;;12.10;9.52;;;18.60;49.90;;;;;;5078556;28;20061;-80
2022/04/23 10:50:19;;;;;;;11.43;9.80;;;18.60;50.00;;;;;;5079251;28;20088;-82
2022/04/23 10:52:46;;;;;;;11.20;8.82;;;18.60;46.90;;;;;;5078773;28;20036;-82
2022/04/23 10:55:13;;;;;;;10.10;8.77;;;18.60;48.10;;;;;;5095464;28;20044;-82
2022/04/23 10:57:39;;;;;;;9.88;8.85;;;18.70;49.10;;;;;;5078651;28;20077;-80
2022/04/23 11:00:16;;;;;;;9.55;8.65;;;18.70;49.10;;;;;;5095431;28;20134;-81
2022/04/23 11:02:46;;;;;;;11.23;8.43;;;18.70;48.70;;;;;;5078435;28;20132;-84
2022/04/23 11:13:48;;;;;;;10.18;9.18;;;19.00;48.30;;;;;;5095222;28;20487;-82
2022/04/23 11:16:19;;;;;;;16.42;10.77;;;19.10;48.30;;;;;;5078653;28;20035;-81
2022/04/23 11:18:46;;;;;;;11.10;10.00;;;19.10;47.90;;;;;;5078495;28;20083;-82
2022/04/23 11:21:18;;;;;;;13.52;10.95;;;19.20;46.30;;;;;;5061793;28;20242;-81
2022/04/23 11:23:45;;;;;;;10.20;9.25;;;19.20;44.20;;;;;;5094776;28;20056;-80
2022/04/23 11:26:22;;;;;;;9.35;8.45;;;19.40;46.80;;;;;;5078677;28;20082;-84
2022/04/23 11:29:02;;;;;;;10.27;9.30;;;19.40;46.40;;;;;;5078604;28;20043;-80
2022/04/23 11:31:29;;;;;;;10.32;7.97;;;19.50;46.10;;;;;;5078179;28;20100;-81
2022/04/23 11:33:56;;;;;;;9.63;8.60;;;19.60;47.40;;;;;;5077816;28;20047;-83
2022/04/23 11:36:27;;;;;;;9.57;8.68;;;19.70;46.30;;;;;;5078479;28;20051;-83
2022/04/23 11:38:57;;;;;;;11.00;9.00;;;19.60;45.10;;;;;;5078079;28;20079;-83
2022/04/23 11:41:30;;;;;;;10.80;9.80;;;19.80;46.00;;;;;;5094829;28;20122;-80
2022/04/23 11:43:56;;;;;;;13.32;10.35;;;19.80;43.50;;;;;;5078184;28;20075;-82
2022/04/23 11:46:22;;;;;;;10.82;8.95;;;19.90;43.10;;;;;;5094976;28;20071;-81
2022/04/23 11:48:50;;;;;;;9.88;8.98;;;19.90;41.60;;;;;;5095017;28;20039;-80
2022/04/23 11:51:21;;;;;;;11.23;9.35;;;20.10;44.20;;;;;;5094993;28;20047;-83
2022/04/23 11:54:00;;;;;;;10.68;9.43;;;20.00;42.50;;;;;;5094928;28;20047;-81
2022/04/23 11:56:33;;;;;;;10.13;9.18;;;20.20;44.30;;;;;;5078006;28;20044;-82
2022/04/23 11:59:05;;;;;;;12.50;8.63;;;20.20;44.60;;;;;;5095126;28;20391;-81
2022/04/23 12:01:32;;;;;;;10.93;9.75;;;20.20;44.70;;;;;;5077913;28;20071;-80
2022/04/23 12:03:58;;;;;;;9.77;8.70;;;20.30;44.90;;;;;;5077865;28;20050;-80
2022/04/23 12:06:25;;;;;;;9.65;8.25;;;20.40;43.40;;;;;;5094948;28;20487;-82
2022/04/23 12:08:51;;;;;;;10.13;8.23;;;20.50;44.60;;;;;;5061354;28;20499;-81
2022/04/23 12:11:28;;;;;;;12.15;8.68;;;20.60;40.90;;;;;;5061486;28;20059;-83
2022/04/23 12:13:55;;;;;;;12.05;9.95;;;20.50;43.20;;;;;;5094823;28;20539;-84
2022/04/23 12:16:36;;;;;;;11.05;9.95;;;20.50;41.00;;;;;;5078930;28;20458;-83
2022/04/23 12:19:10;;;;;;;10.45;9.43;;;20.60;42.80;;;;;;5082183;28;20096;-81
2022/04/23 12:21:37;;;;;;;10.95;8.00;;;20.70;40.00;;;;;;5098546;28;20050;-83
2022/04/23 12:24:04;;;;;;;9.00;8.20;;;20.60;40.50;;;;;;5081428;28;20478;-82
2022/04/23 12:26:34;;;;;;;9.25;8.05;;;20.60;41.80;;;;;;5081537;28;20039;-85
2022/04/23 12:43:17;;;;;;;9.43;8.52;;;21.30;40.40;;;;;;5097967;28;20055;-83
2022/04/23 12:45:43;;;;;;;10.18;8.60;;;21.40;40.60;;;;;;5097986;28;20039;-81
2022/04/23 12:48:09;;;;;;;8.45;7.45;;;21.50;41.00;;;;;;5081126;28;20126;-83
2022/04/23 12:50:35;;;;;;;8.55;7.55;;;21.50;41.30;;;;;;5097709;28;20039;-83
2022/04/23 12:53:00;;;;;;;8.27;7.35;;;21.50;40.90;;;;;;5080787;28;20041;-81
2022/04/23 12:55:32;;;;;;;9.15;7.97;;;21.80;41.20;;;;;;5080799;28;20403;-84
2022/04/23 12:58:04;;;;;;;8.38;7.35;;;21.90;41.10;;;;;;5097613;28;20076;-82
2022/04/23 13:00:30;;;;;;;8.55;7.78;;;21.90;40.80;;;;;;5080764;28;20044;-83
2022/04/23 13:02:59;;;;;;;9.75;8.35;;;21.80;39.40;;;;;;5080741;28;20046;-82
2022/04/23 13:05:26;;;;;;;8.88;7.22;;;21.80;40.00;;;;;;5081131;28;20035;-83
2022/04/23 13:10:37;;;;;;;9.30;8.40;;;21.70;39.80;;;;;;5083193;28;20047;-82
2022/04/23 13:13:05;;;;;;;7.88;7.18;;;21.70;39.80;;;;;;5097918;28;20105;-83
2022/04/23 13:15:31;;;;;;;8.63;7.82;;;21.70;40.60;;;;;;5097270;28;20039;-81
2022/04/23 13:17:57;;;;;;;8.88;7.80;;;21.80;39.60;;;;;;5080689;28;20031;-81
2022/04/23 13:20:23;;;;;;;9.35;8.45;;;21.80;40.00;;;;;;5063842;28;20036;-83
2022/04/23 13:22:48;;;;;;;10.77;8.40;;;21.70;39.00;;;;;;5078781;28;20048;-84